sensor_id;sensor_type;location;lat;lon;timestamp;P1;durP1;ratioP1;P2;durP2;ratioP2
32788;SDS011;19141;48.980;8.410;2022-07-06T04:22:33;14.10;;;9.10;;
32788;SDS011;19141;48.980;8.410;2022-07-06T04:25:03;9.75;;;7.30;;
32788;SDS011;19141;48.980;8.410;2022-07-06T04:27:29;13.20;;;9.32;;
32788;SDS011;19141;48.980;8.410;2022-07-06T04:29:54;11.60;;;7.45;;
32788;SDS011;19141;48.980;8.410;2022-07-06T04:32:20;13.82;;;9.50;;
32788;SDS011;19141;48.980;8.410;2022-07-06T04:34:46;8.55;;;7.30;;
32788;SDS011;19141;48.980;8.410;2022-07-06T04:37:11;8.50;;;7.10;;
32788;SDS011;19141;48.980;8.410;2022-07-06T04:39:37;10.50;;;6.55;;
32788;SDS011;19141;48.980;8.410;2022-07-06T04:42:03;10.07;;;6.70;;
32788;SDS011;19141;48.980;8.410;2022-07-06T04:44:28;10.95;;;7.03;;
32788;SDS011;19141;48.980;8.410;2022-07-06T04:46:54;9.15;;;6.10;;
32788;SDS011;19141;48.980;8.410;2022-07-06T04:49:20;8.18;;;6.47;;
32788;SDS011;19141;48.980;8.410;2022-07-06T04:51:46;6.55;;;3.90;;
32788;SDS011;19141;48.980;8.410;2022-07-06T04:54:11;6.03;;;4.03;;
32788;SDS011;19141;48.980;8.410;2022-07-06T04:56:37;4.60;;;3.95;;
32788;SDS011;19141;48.980;8.410;2022-07-06T04:59:03;7.38;;;3.85;;
32788;SDS011;19141;48.980;8.410;2022-07-06T05:01:28;5.15;;;3.58;;
32788;SDS011;19141;48.980;8.410;2022-07-06T05:03:54;6.18;;;4.68;;
32788;SDS011;19141;48.980;8.410;2022-07-06T05:06:22;6.25;;;4.07;;
32788;SDS011;19141;48.980;8.410;2022-07-06T05:08:47;4.78;;;3.60;;
32788;SDS011;19141;48.980;8.410;2022-07-06T05:11:13;7.47;;;4.40;;
32788;SDS011;19141;48.980;8.410;2022-07-06T05:13:40;6.15;;;3.60;;
32788;SDS011;19141;48.980;8.410;2022-07-06T05:16:05;6.90;;;3.38;;
32788;SDS011;19141;48.980;8.410;2022-07-06T05:18:31;9.57;;;4.05;;
32788;SDS011;19141;48.980;8.410;2022-07-06T05:20:58;5.75;;;3.80;;
32788;SDS011;19141;48.980;8.410;2022-07-06T05:23:24;5.72;;;3.78;;
32788;SDS011;19141;48.980;8.410;2022-07-06T05:25:49;5.90;;;3.95;;
32788;SDS011;19141;48.980;8.410;2022-07-06T05:28:15;6.13;;;3.40;;
32788;SDS011;19141;48.980;8.410;2022-07-06T05:30:40;8.57;;;3.80;;
32788;SDS011;19141;48.980;8.410;2022-07-06T05:33:07;6.40;;;3.65;;
32788;SDS011;19141;48.980;8.410;2022-07-06T05:35:33;6.80;;;3.50;;
32788;SDS011;19141;48.980;8.410;2022-07-06T05:38:00;4.90;;;3.10;;
32788;SDS011;19141;48.980;8.410;2022-07-06T05:40:26;5.88;;;3.17;;
32788;SDS011;19141;48.980;8.410;2022-07-06T05:42:52;9.48;;;3.67;;
32788;SDS011;19141;48.980;8.410;2022-07-06T05:45:18;8.35;;;4.00;;
32788;SDS011;19141;48.980;8.410;2022-07-06T05:47:44;5.05;;;3.00;;
32788;SDS011;19141;48.980;8.410;2022-07-06T05:50:30;6.80;;;4.05;;
32788;SDS011;19141;48.980;8.410;2022-07-06T05:52:58;4.85;;;3.00;;
32788;SDS011;19141;48.980;8.410;2022-07-06T05:55:27;5.03;;;3.38;;
32788;SDS011;19141;48.980;8.410;2022-07-06T05:57:53;5.22;;;3.25;;
32788;SDS011;19141;48.980;8.410;2022-07-06T06:00:24;4.40;;;3.53;;
32788;SDS011;19141;48.980;8.410;2022-07-06T06:02:53;6.05;;;3.60;;
32788;SDS011;19141;48.980;8.410;2022-07-06T06:05:20;9.98;;;4.03;;
32788;SDS011;19141;48.980;8.410;2022-07-06T06:07:48;5.50;;;3.22;;
32788;SDS011;19141;48.980;8.410;2022-07-06T06:10:16;5.43;;;3.22;;
32788;SDS011;19141;48.980;8.410;2022-07-06T06:15:10;5.35;;;3.53;;
32788;SDS011;19141;48.980;8.410;2022-07-06T06:17:36;7.57;;;3.28;;
32788;SDS011;19141;48.980;8.410;2022-07-06T06:20:03;8.82;;;3.35;;
32788;SDS011;19141;48.980;8.410;2022-07-06T06:22:31;5.55;;;2.72;;
32788;SDS011;19141;48.980;8.410;2022-07-06T06:25:08;6.07;;;3.53;;
32788;SDS011;19141;48.980;8.410;2022-07-06T06:27:34;6.97;;;3.55;;
32788;SDS011;19141;48.980;8.410;2022-07-06T06:29:59;8.15;;;3.95;;
32788;SDS011;19141;48.980;8.410;2022-07-06T06:32:25;7.93;;;3.70;;
32788;SDS011;19141;48.980;8.410;2022-07-06T06:34:50;6.60;;;3.08;;
32788;SDS011;19141;48.980;8.410;2022-07-06T06:37:15;4.05;;;2.95;;
32788;SDS011;19141;48.980;8.410;2022-07-06T06:39:41;4.65;;;3.20;;
32788;SDS011;19141;48.980;8.410;2022-07-06T06:42:06;4.70;;;3.20;;
32788;SDS011;19141;48.980;8.410;2022-07-06T06:44:33;6.35;;;3.50;;
32788;SDS011;19141;48.980;8.410;2022-07-06T06:46:58;7.25;;;3.30;;
32788;SDS011;19141;48.980;8.410;2022-07-06T06:49:24;4.93;;;2.78;;
32788;SDS011;19141;48.980;8.410;2022-07-06T06:51:49;6.10;;;3.33;;
32788;SDS011;19141;48.980;8.410;2022-07-06T06:54:15;6.50;;;3.03;;
32788;SDS011;19141;48.980;8.410;2022-07-06T06:56:40;6.80;;;3.15;;
32788;SDS011;19141;48.980;8.410;2022-07-06T06:59:05;5.97;;;3.67;;
32788;SDS011;19141;48.980;8.410;2022-07-06T07:01:31;4.82;;;3.13;;
32788;SDS011;19141;48.980;8.410;2022-07-06T07:03:57;5.50;;;3.33;;
32788;SDS011;19141;48.980;8.410;2022-07-06T07:06:23;10.20;;;3.00;;
32788;SDS011;19141;48.980;8.410;2022-07-06T07:08:49;4.22;;;2.90;;
32788;SDS011;19141;48.980;8.410;2022-07-06T07:11:14;3.95;;;2.78;;
32788;SDS011;19141;48.980;8.410;2022-07-06T07:13:39;4.75;;;2.88;;
32788;SDS011;19141;48.980;8.410;2022-07-06T07:16:05;5.22;;;3.10;;
32788;SDS011;19141;48.980;8.410;2022-07-06T07:18:31;6.00;;;2.90;;
32788;SDS011;19141;48.980;8.410;2022-07-06T07:20:56;3.55;;;2.58;;
32788;SDS011;19141;48.980;8.410;2022-07-06T07:23:22;5.15;;;2.70;;
32788;SDS011;19141;48.980;8.410;2022-07-06T07:25:47;8.48;;;4.03;;
32788;SDS011;19141;48.980;8.410;2022-07-06T07:28:13;6.18;;;3.17;;
32788;SDS011;19141;48.980;8.410;2022-07-06T07:30:38;5.22;;;2.88;;
32788;SDS011;19141;48.980;8.410;2022-07-06T07:33:04;5.88;;;3.20;;
32788;SDS011;19141;48.980;8.410;2022-07-06T07:35:29;7.32;;;3.15;;
32788;SDS011;19141;48.980;8.410;2022-07-06T07:37:54;5.35;;;3.10;;
32788;SDS011;19141;48.980;8.410;2022-07-06T07:40:20;4.38;;;3.03;;
32788;SDS011;19141;48.980;8.410;2022-07-06T07:42:46;5.35;;;3.08;;
32788;SDS011;19141;48.980;8.410;2022-07-06T07:45:12;4.25;;;2.72;;
32788;SDS011;19141;48.980;8.410;2022-07-06T07:47:37;3.47;;;2.70;;
32788;SDS011;19141;48.980;8.410;2022-07-06T07:50:03;6.00;;;3.15;;
32788;SDS011;19141;48.980;8.410;2022-07-06T07:52:30;4.83;;;3.40;;
32788;SDS011;19141;48.980;8.410;2022-07-06T07:54:56;6.25;;;3.03;;
32788;SDS011;19141;48.980;8.410;2022-07-06T07:57:21;6.05;;;2.70;;
32788;SDS011;19141;48.980;8.410;2022-07-06T07:59:47;5.57;;;2.88;;
32788;SDS011;19141;48.980;8.410;2022-07-06T08:02:12;7.32;;;3.10;;
32788;SDS011;19141;48.980;8.410;2022-07-06T08:04:37;4.35;;;3.30;;
32788;SDS011;19141;48.980;8.410;2022-07-06T08:07:03;8.57;;;3.40;;
32788;SDS011;19141;48.980;8.410;2022-07-06T08:09:28;6.28;;;3.05;;
32788;SDS011;19141;48.980;8.410;2022-07-06T08:11:54;5.82;;;3.13;;
32788;SDS011;19141;48.980;8.410;2022-07-06T08:14:19;7.60;;;2.92;;
32788;SDS011;19141;48.980;8.410;2022-07-06T08:16:45;5.60;;;2.83;;
32788;SDS011;19141;48.980;8.410;2022-07-06T08:19:10;6.38;;;2.95;;
32788;SDS011;19141;48.980;8.410;2022-07-06T08:21:40;9.25;;;2.72;;
32788;SDS011;19141;48.980;8.410;2022-07-06T08:24:06;4.32;;;2.67;;
32788;SDS011;19141;48.980;8.410;2022-07-06T08:26:31;6.20;;;3.13;;
32788;SDS011;19141;48.980;8.410;2022-07-06T08:28:57;3.70;;;3.25;;
32788;SDS011;19141;48.980;8.410;2022-07-06T08:31:23;7.55;;;3.25;;
32788;SDS011;19141;48.980;8.410;2022-07-06T08:33:48;5.10;;;3.00;;
32788;SDS011;19141;48.980;8.410;2022-07-06T08:36:14;3.88;;;3.15;;
32788;SDS011;19141;48.980;8.410;2022-07-06T08:38:39;4.85;;;2.80;;
32788;SDS011;19141;48.980;8.410;2022-07-06T08:41:05;4.97;;;3.05;;
32788;SDS011;19141;48.980;8.410;2022-07-06T08:43:32;6.57;;;3.53;;
32788;SDS011;19141;48.980;8.410;2022-07-06T08:45:59;5.75;;;3.10;;
32788;SDS011;19141;48.980;8.410;2022-07-06T08:48:26;7.85;;;3.33;;
32788;SDS011;19141;48.980;8.410;2022-07-06T08:50:52;7.50;;;3.10;;
32788;SDS011;19141;48.980;8.410;2022-07-06T08:53:20;5.55;;;3.05;;
32788;SDS011;19141;48.980;8.410;2022-07-06T08:55:46;8.77;;;2.97;;
32788;SDS011;19141;48.980;8.410;2022-07-06T08:58:13;7.35;;;3.38;;
32788;SDS011;19141;48.980;8.410;2022-07-06T09:00:38;5.18;;;2.80;;
32788;SDS011;19141;48.980;8.410;2022-07-06T09:03:05;3.58;;;3.10;;
32788;SDS011;19141;48.980;8.410;2022-07-06T09:05:31;8.82;;;3.25;;
32788;SDS011;19141;48.980;8.410;2022-07-06T09:07:59;4.75;;;3.22;;
32788;SDS011;19141;48.980;8.410;2022-07-06T09:10:25;7.75;;;3.00;;
32788;SDS011;19141;48.980;8.410;2022-07-06T09:12:51;7.18;;;3.33;;
32788;SDS011;19141;48.980;8.410;2022-07-06T09:15:16;4.30;;;2.83;;
32788;SDS011;19141;48.980;8.410;2022-07-06T09:17:42;3.50;;;2.72;;
32788;SDS011;19141;48.980;8.410;2022-07-06T09:20:09;4.28;;;2.70;;
32788;SDS011;19141;48.980;8.410;2022-07-06T09:22:39;5.80;;;3.25;;
32788;SDS011;19141;48.980;8.410;2022-07-06T09:25:11;6.85;;;2.90;;
32788;SDS011;19141;48.980;8.410;2022-07-06T09:27:39;4.57;;;2.67;;
32788;SDS011;19141;48.980;8.410;2022-07-06T09:30:07;6.32;;;3.15;;
32788;SDS011;19141;48.980;8.410;2022-07-06T09:32:46;4.18;;;3.15;;
32788;SDS011;19141;48.980;8.410;2022-07-06T09:35:22;7.07;;;3.05;;
32788;SDS011;19141;48.980;8.410;2022-07-06T09:38:12;4.78;;;2.50;;
32788;SDS011;19141;48.980;8.410;2022-07-06T09:40:39;5.00;;;2.33;;
32788;SDS011;19141;48.980;8.410;2022-07-06T09:43:09;4.93;;;2.95;;
32788;SDS011;19141;48.980;8.410;2022-07-06T09:45:40;2.95;;;2.50;;
32788;SDS011;19141;48.980;8.410;2022-07-06T09:48:11;5.05;;;3.28;;
32788;SDS011;19141;48.980;8.410;2022-07-06T09:50:45;4.40;;;2.50;;
32788;SDS011;19141;48.980;8.410;2022-07-06T09:53:12;5.50;;;2.80;;
32788;SDS011;19141;48.980;8.410;2022-07-06T09:55:38;4.85;;;2.55;;
32788;SDS011;19141;48.980;8.410;2022-07-06T09:58:08;7.57;;;2.75;;
32788;SDS011;19141;48.980;8.410;2022-07-06T10:00:34;6.47;;;2.20;;
32788;SDS011;19141;48.980;8.410;2022-07-06T10:03:00;5.93;;;2.53;;
32788;SDS011;19141;48.980;8.410;2022-07-06T10:05:26;5.55;;;2.53;;
32788;SDS011;19141;48.980;8.410;2022-07-06T10:07:55;3.63;;;2.13;;
32788;SDS011;19141;48.980;8.410;2022-07-06T10:10:27;4.35;;;2.40;;
32788;SDS011;19141;48.980;8.410;2022-07-06T10:12:55;4.95;;;2.35;;
32788;SDS011;19141;48.980;8.410;2022-07-06T10:17:57;5.30;;;2.65;;
32788;SDS011;19141;48.980;8.410;2022-07-06T10:20:23;5.10;;;2.73;;
32788;SDS011;19141;48.980;8.410;2022-07-06T10:22:52;3.88;;;2.53;;
32788;SDS011;19141;48.980;8.410;2022-07-06T10:25:19;3.50;;;2.20;;
32788;SDS011;19141;48.980;8.410;2022-07-06T10:27:46;4.75;;;2.35;;
32788;SDS011;19141;48.980;8.410;2022-07-06T10:30:13;4.82;;;2.63;;
32788;SDS011;19141;48.980;8.410;2022-07-06T10:32:41;6.68;;;3.47;;
32788;SDS011;19141;48.980;8.410;2022-07-06T10:37:34;4.30;;;2.60;;
32788;SDS011;19141;48.980;8.410;2022-07-06T10:39:59;2.60;;;2.13;;
32788;SDS011;19141;48.980;8.410;2022-07-06T10:42:58;2.58;;;2.05;;
32788;SDS011;19141;48.980;8.410;2022-07-06T10:48:15;6.07;;;2.50;;
32788;SDS011;19141;48.980;8.410;2022-07-06T10:50:46;6.45;;;2.38;;
32788;SDS011;19141;48.980;8.410;2022-07-06T10:53:21;4.35;;;2.25;;
32788;SDS011;19141;48.980;8.410;2022-07-06T10:55:51;4.68;;;2.22;;
32788;SDS011;19141;48.980;8.410;2022-07-06T11:01:20;3.97;;;2.38;;
32788;SDS011;19141;48.980;8.410;2022-07-06T11:06:14;3.97;;;2.25;;
32788;SDS011;19141;48.980;8.410;2022-07-06T11:08:42;4.57;;;2.22;;
32788;SDS011;19141;48.980;8.410;2022-07-06T11:11:14;4.75;;;2.22;;
32788;SDS011;19141;48.980;8.410;2022-07-06T11:13:49;5.05;;;2.20;;
32788;SDS011;19141;48.980;8.410;2022-07-06T11:16:17;3.15;;;2.17;;
32788;SDS011;19141;48.980;8.410;2022-07-06T11:18:47;3.80;;;2.20;;
32788;SDS011;19141;48.980;8.410;2022-07-06T11:21:31;4.60;;;2.30;;
32788;SDS011;19141;48.980;8.410;2022-07-06T11:24:10;3.47;;;2.33;;
32788;SDS011;19141;48.980;8.410;2022-07-06T11:26:37;3.53;;;2.00;;
32788;SDS011;19141;48.980;8.410;2022-07-06T11:29:04;4.82;;;1.98;;
32788;SDS011;19141;48.980;8.410;2022-07-06T11:31:35;5.13;;;2.33;;
32788;SDS011;19141;48.980;8.410;2022-07-06T11:34:03;4.07;;;2.30;;
32788;SDS011;19141;48.980;8.410;2022-07-06T11:38:55;3.83;;;1.75;;
32788;SDS011;19141;48.980;8.410;2022-07-06T11:41:20;4.25;;;2.13;;
32788;SDS011;19141;48.980;8.410;2022-07-06T11:43:47;3.08;;;1.98;;
32788;SDS011;19141;48.980;8.410;2022-07-06T11:46:23;3.55;;;2.22;;
32788;SDS011;19141;48.980;8.410;2022-07-06T11:49:03;2.25;;;1.92;;
32788;SDS011;19141;48.980;8.410;2022-07-06T11:51:33;3.42;;;2.00;;
32788;SDS011;19141;48.980;8.410;2022-07-06T11:54:01;2.40;;;1.90;;
32788;SDS011;19141;48.980;8.410;2022-07-06T11:56:33;2.83;;;1.90;;
32788;SDS011;19141;48.980;8.410;2022-07-06T11:59:00;2.22;;;1.98;;
32788;SDS011;19141;48.980;8.410;2022-07-06T12:01:26;5.32;;;1.98;;
32788;SDS011;19141;48.980;8.410;2022-07-06T12:03:56;3.00;;;1.95;;
32788;SDS011;19141;48.980;8.410;2022-07-06T12:06:24;3.75;;;1.95;;
32788;SDS011;19141;48.980;8.410;2022-07-06T12:08:54;3.63;;;1.60;;
32788;SDS011;19141;48.980;8.410;2022-07-06T12:11:28;3.05;;;1.83;;
32788;SDS011;19141;48.980;8.410;2022-07-06T12:13:57;3.97;;;1.83;;
32788;SDS011;19141;48.980;8.410;2022-07-06T12:16:32;2.85;;;1.80;;
32788;SDS011;19141;48.980;8.410;2022-07-06T12:19:02;2.50;;;1.50;;
32788;SDS011;19141;48.980;8.410;2022-07-06T12:21:29;3.97;;;1.95;;
32788;SDS011;19141;48.980;8.410;2022-07-06T12:23:55;4.93;;;1.63;;
32788;SDS011;19141;48.980;8.410;2022-07-06T12:26:23;2.72;;;1.55;;
32788;SDS011;19141;48.980;8.410;2022-07-06T12:29:04;5.57;;;1.75;;
32788;SDS011;19141;48.980;8.410;2022-07-06T12:31:35;4.80;;;1.85;;
32788;SDS011;19141;48.980;8.410;2022-07-06T12:34:05;3.92;;;1.50;;
32788;SDS011;19141;48.980;8.410;2022-07-06T12:36:44;1.95;;;1.75;;
32788;SDS011;19141;48.980;8.410;2022-07-06T12:39:13;3.63;;;2.10;;
32788;SDS011;19141;48.980;8.410;2022-07-06T12:41:43;2.85;;;1.92;;
32788;SDS011;19141;48.980;8.410;2022-07-06T12:44:13;2.72;;;1.60;;
32788;SDS011;19141;48.980;8.410;2022-07-06T12:46:41;2.38;;;1.60;;
32788;SDS011;19141;48.980;8.410;2022-07-06T12:49:12;3.17;;;1.40;;
32788;SDS011;19141;48.980;8.410;2022-07-06T12:51:48;2.17;;;1.25;;
32788;SDS011;19141;48.980;8.410;2022-07-06T12:54:21;3.63;;;1.50;;
32788;SDS011;19141;48.980;8.410;2022-07-06T12:59:56;2.03;;;1.42;;
32788;SDS011;19141;48.980;8.410;2022-07-06T13:04:54;4.40;;;1.58;;
32788;SDS011;19141;48.980;8.410;2022-07-06T13:07:20;1.60;;;1.50;;
32788;SDS011;19141;48.980;8.410;2022-07-06T13:09:45;2.63;;;1.52;;
32788;SDS011;19141;48.980;8.410;2022-07-06T13:12:11;4.75;;;1.40;;
32788;SDS011;19141;48.980;8.410;2022-07-06T13:14:36;1.60;;;1.27;;
32788;SDS011;19141;48.980;8.410;2022-07-06T13:17:02;5.30;;;1.67;;
32788;SDS011;19141;48.980;8.410;2022-07-06T13:19:27;5.07;;;1.67;;
32788;SDS011;19141;48.980;8.410;2022-07-06T13:21:53;4.77;;;1.53;;
32788;SDS011;19141;48.980;8.410;2022-07-06T13:24:18;2.60;;;1.65;;
32788;SDS011;19141;48.980;8.410;2022-07-06T13:26:44;3.00;;;1.33;;
32788;SDS011;19141;48.980;8.410;2022-07-06T13:29:09;2.30;;;1.25;;
32788;SDS011;19141;48.980;8.410;2022-07-06T13:31:36;1.73;;;1.30;;
32788;SDS011;19141;48.980;8.410;2022-07-06T13:34:02;1.80;;;1.23;;
32788;SDS011;19141;48.980;8.410;2022-07-06T13:36:27;2.10;;;1.30;;
32788;SDS011;19141;48.980;8.410;2022-07-06T13:38:53;2.88;;;1.13;;
32788;SDS011;19141;48.980;8.410;2022-07-06T13:41:18;2.17;;;1.33;;
32788;SDS011;19141;48.980;8.410;2022-07-06T13:43:44;5.68;;;1.50;;
32788;SDS011;19141;48.980;8.410;2022-07-06T13:46:09;2.85;;;1.25;;
32788;SDS011;19141;48.980;8.410;2022-07-06T13:48:36;1.60;;;1.10;;
32788;SDS011;19141;48.980;8.410;2022-07-06T13:51:01;2.65;;;1.23;;
32788;SDS011;19141;48.980;8.410;2022-07-06T13:53:27;1.70;;;1.20;;
32788;SDS011;19141;48.980;8.410;2022-07-06T13:55:52;1.40;;;1.30;;
32788;SDS011;19141;48.980;8.410;2022-07-06T13:58:18;1.30;;;1.20;;
32788;SDS011;19141;48.980;8.410;2022-07-06T14:00:44;2.73;;;1.33;;
32788;SDS011;19141;48.980;8.410;2022-07-06T14:03:10;1.65;;;1.27;;
32788;SDS011;19141;48.980;8.410;2022-07-06T14:05:35;2.03;;;1.30;;
32788;SDS011;19141;48.980;8.410;2022-07-06T14:08:01;4.15;;;1.55;;
32788;SDS011;19141;48.980;8.410;2022-07-06T14:10:27;1.98;;;1.23;;
32788;SDS011;19141;48.980;8.410;2022-07-06T14:12:52;1.63;;;1.20;;
32788;SDS011;19141;48.980;8.410;2022-07-06T14:15:18;1.85;;;1.20;;
32788;SDS011;19141;48.980;8.410;2022-07-06T14:17:43;3.45;;;1.33;;
32788;SDS011;19141;48.980;8.410;2022-07-06T14:20:09;2.00;;;1.10;;
32788;SDS011;19141;48.980;8.410;2022-07-06T14:22:36;2.53;;;1.30;;
32788;SDS011;19141;48.980;8.410;2022-07-06T14:25:02;1.23;;;1.10;;
32788;SDS011;19141;48.980;8.410;2022-07-06T14:27:28;1.80;;;1.27;;
32788;SDS011;19141;48.980;8.410;2022-07-06T14:29:53;3.50;;;2.15;;
32788;SDS011;19141;48.980;8.410;2022-07-06T14:32:19;1.90;;;1.40;;
32788;SDS011;19141;48.980;8.410;2022-07-06T14:34:45;1.85;;;1.10;;
32788;SDS011;19141;48.980;8.410;2022-07-06T14:37:10;1.42;;;1.00;;
32788;SDS011;19141;48.980;8.410;2022-07-06T14:39:36;2.03;;;1.20;;
32788;SDS011;19141;48.980;8.410;2022-07-06T14:42:01;1.63;;;1.08;;
32788;SDS011;19141;48.980;8.410;2022-07-06T14:44:26;1.55;;;1.10;;
32788;SDS011;19141;48.980;8.410;2022-07-06T14:46:52;2.05;;;1.20;;
32788;SDS011;19141;48.980;8.410;2022-07-06T14:49:17;2.15;;;1.30;;
32788;SDS011;19141;48.980;8.410;2022-07-06T14:51:43;2.13;;;1.20;;
32788;SDS011;19141;48.980;8.410;2022-07-06T14:54:09;1.83;;;1.10;;
32788;SDS011;19141;48.980;8.410;2022-07-06T14:56:34;1.55;;;1.20;;
32788;SDS011;19141;48.980;8.410;2022-07-06T14:59:00;3.88;;;1.70;;
32788;SDS011;19141;48.980;8.410;2022-07-06T15:01:25;2.38;;;1.27;;
32788;SDS011;19141;48.980;8.410;2022-07-06T15:03:51;1.70;;;1.10;;
32788;SDS011;19141;48.980;8.410;2022-07-06T15:06:16;1.23;;;1.13;;
32788;SDS011;19141;48.980;8.410;2022-07-06T15:08:42;1.80;;;1.25;;
32788;SDS011;19141;48.980;8.410;2022-07-06T15:11:08;2.00;;;1.15;;
32788;SDS011;19141;48.980;8.410;2022-07-06T15:13:33;2.63;;;1.33;;
32788;SDS011;19141;48.980;8.410;2022-07-06T15:15:59;1.75;;;1.45;;
32788;SDS011;19141;48.980;8.410;2022-07-06T15:18:24;2.33;;;1.35;;
32788;SDS011;19141;48.980;8.410;2022-07-06T15:20:50;3.03;;;1.73;;
32788;SDS011;19141;48.980;8.410;2022-07-06T15:23:16;2.58;;;1.40;;
32788;SDS011;19141;48.980;8.410;2022-07-06T15:25:41;2.08;;;1.77;;
32788;SDS011;19141;48.980;8.410;2022-07-06T15:28:07;2.47;;;1.40;;
32788;SDS011;19141;48.980;8.410;2022-07-06T15:30:32;1.70;;;1.25;;
32788;SDS011;19141;48.980;8.410;2022-07-06T15:32:58;3.72;;;1.15;;
32788;SDS011;19141;48.980;8.410;2022-07-06T15:35:24;3.03;;;1.20;;
32788;SDS011;19141;48.980;8.410;2022-07-06T15:37:50;2.92;;;1.38;;
32788;SDS011;19141;48.980;8.410;2022-07-06T15:40:15;3.90;;;1.58;;
32788;SDS011;19141;48.980;8.410;2022-07-06T15:42:46;2.08;;;1.50;;
32788;SDS011;19141;48.980;8.410;2022-07-06T15:45:12;2.53;;;1.35;;
32788;SDS011;19141;48.980;8.410;2022-07-06T15:47:38;1.70;;;1.30;;
32788;SDS011;19141;48.980;8.410;2022-07-06T15:50:04;2.33;;;1.40;;
32788;SDS011;19141;48.980;8.410;2022-07-06T15:52:30;6.70;;;2.20;;
32788;SDS011;19141;48.980;8.410;2022-07-06T15:54:56;2.55;;;1.27;;
32788;SDS011;19141;48.980;8.410;2022-07-06T15:57:21;2.63;;;1.85;;
32788;SDS011;19141;48.980;8.410;2022-07-06T15:59:47;2.03;;;1.73;;
32788;SDS011;19141;48.980;8.410;2022-07-06T16:02:12;1.70;;;1.60;;
32788;SDS011;19141;48.980;8.410;2022-07-06T16:04:37;2.17;;;1.65;;
32788;SDS011;19141;48.980;8.410;2022-07-06T16:07:03;2.80;;;1.65;;
32788;SDS011;19141;48.980;8.410;2022-07-06T16:09:29;3.05;;;1.90;;
32788;SDS011;19141;48.980;8.410;2022-07-06T16:11:54;3.25;;;1.83;;
32788;SDS011;19141;48.980;8.410;2022-07-06T16:14:20;3.53;;;1.65;;
32788;SDS011;19141;48.980;8.410;2022-07-06T16:16:45;4.57;;;2.15;;
32788;SDS011;19141;48.980;8.410;2022-07-06T16:19:11;2.65;;;1.70;;
32788;SDS011;19141;48.980;8.410;2022-07-06T16:21:37;2.30;;;1.70;;
32788;SDS011;19141;48.980;8.410;2022-07-06T16:24:03;3.08;;;2.10;;
32788;SDS011;19141;48.980;8.410;2022-07-06T16:26:28;3.45;;;1.40;;
32788;SDS011;19141;48.980;8.410;2022-07-06T16:28:54;1.13;;;1.02;;
32788;SDS011;19141;48.980;8.410;2022-07-06T16:31:19;4.38;;;2.17;;
32788;SDS011;19141;48.980;8.410;2022-07-06T16:33:45;3.28;;;2.15;;
32788;SDS011;19141;48.980;8.410;2022-07-06T16:36:11;3.55;;;1.70;;
32788;SDS011;19141;48.980;8.410;2022-07-06T16:38:38;2.07;;;1.70;;
32788;SDS011;19141;48.980;8.410;2022-07-06T16:41:04;2.42;;;1.80;;
32788;SDS011;19141;48.980;8.410;2022-07-06T16:43:30;1.75;;;1.15;;
32788;SDS011;19141;48.980;8.410;2022-07-06T16:45:56;3.08;;;1.80;;
32788;SDS011;19141;48.980;8.410;2022-07-06T16:48:22;2.03;;;1.50;;
32788;SDS011;19141;48.980;8.410;2022-07-06T16:50:47;3.33;;;1.67;;
32788;SDS011;19141;48.980;8.410;2022-07-06T16:53:13;2.38;;;1.75;;
32788;SDS011;19141;48.980;8.410;2022-07-06T16:55:38;2.25;;;1.77;;
32788;SDS011;19141;48.980;8.410;2022-07-06T16:58:04;3.90;;;2.10;;
32788;SDS011;19141;48.980;8.410;2022-07-06T17:00:30;3.08;;;2.17;;
32788;SDS011;19141;48.980;8.410;2022-07-06T17:02:58;3.28;;;1.55;;
32788;SDS011;19141;48.980;8.410;2022-07-06T17:05:24;2.97;;;1.75;;
32788;SDS011;19141;48.980;8.410;2022-07-06T17:07:49;3.63;;;2.33;;
32788;SDS011;19141;48.980;8.410;2022-07-06T17:10:15;2.42;;;1.50;;
32788;SDS011;19141;48.980;8.410;2022-07-06T17:12:40;1.67;;;1.38;;
32788;SDS011;19141;48.980;8.410;2022-07-06T17:15:06;1.80;;;1.38;;
32788;SDS011;19141;48.980;8.410;2022-07-06T17:17:32;3.42;;;1.35;;
32788;SDS011;19141;48.980;8.410;2022-07-06T17:19:57;1.75;;;1.42;;
32788;SDS011;19141;48.980;8.410;2022-07-06T17:22:23;1.90;;;1.45;;
32788;SDS011;19141;48.980;8.410;2022-07-06T17:24:48;3.60;;;1.50;;
32788;SDS011;19141;48.980;8.410;2022-07-06T17:27:14;1.65;;;1.25;;
32788;SDS011;19141;48.980;8.410;2022-07-06T17:29:40;1.83;;;1.48;;
32788;SDS011;19141;48.980;8.410;2022-07-06T17:32:06;2.50;;;1.52;;
32788;SDS011;19141;48.980;8.410;2022-07-06T17:34:31;3.92;;;1.90;;
32788;SDS011;19141;48.980;8.410;2022-07-06T17:36:57;1.70;;;1.35;;
32788;SDS011;19141;48.980;8.410;2022-07-06T17:39:22;2.30;;;1.65;;
32788;SDS011;19141;48.980;8.410;2022-07-06T17:41:48;1.85;;;1.55;;
32788;SDS011;19141;48.980;8.410;2022-07-06T17:44:13;2.80;;;1.45;;
32788;SDS011;19141;48.980;8.410;2022-07-06T17:46:39;3.35;;;1.50;;
32788;SDS011;19141;48.980;8.410;2022-07-06T17:49:04;2.13;;;1.70;;
32788;SDS011;19141;48.980;8.410;2022-07-06T17:51:32;3.67;;;1.92;;
32788;SDS011;19141;48.980;8.410;2022-07-06T17:53:58;3.08;;;1.48;;
32788;SDS011;19141;48.980;8.410;2022-07-06T17:56:23;5.45;;;1.52;;
32788;SDS011;19141;48.980;8.410;2022-07-06T17:58:49;4.03;;;1.50;;
32788;SDS011;19141;48.980;8.410;2022-07-06T18:01:14;2.15;;;1.83;;
32788;SDS011;19141;48.980;8.410;2022-07-06T18:03:40;2.85;;;1.38;;
32788;SDS011;19141;48.980;8.410;2022-07-06T18:06:05;3.05;;;1.30;;
32788;SDS011;19141;48.980;8.410;2022-07-06T18:08:31;2.35;;;1.55;;
32788;SDS011;19141;48.980;8.410;2022-07-06T18:10:57;4.28;;;1.35;;
32788;SDS011;19141;48.980;8.410;2022-07-06T18:13:27;2.80;;;1.20;;
32788;SDS011;19141;48.980;8.410;2022-07-06T18:15:54;3.63;;;1.35;;
32788;SDS011;19141;48.980;8.410;2022-07-06T18:18:21;1.75;;;1.20;;
32788;SDS011;19141;48.980;8.410;2022-07-06T18:20:47;3.97;;;1.15;;
32788;SDS011;19141;48.980;8.410;2022-07-06T18:23:12;1.42;;;0.80;;
32788;SDS011;19141;48.980;8.410;2022-07-06T18:25:37;1.88;;;0.98;;
32788;SDS011;19141;48.980;8.410;2022-07-06T18:28:03;4.40;;;1.23;;
32788;SDS011;19141;48.980;8.410;2022-07-06T18:30:29;3.20;;;1.08;;
32788;SDS011;19141;48.980;8.410;2022-07-06T18:32:55;4.00;;;1.00;;
32788;SDS011;19141;48.980;8.410;2022-07-06T18:35:21;2.88;;;1.10;;
32788;SDS011;19141;48.980;8.410;2022-07-06T18:37:47;1.27;;;1.00;;
32788;SDS011;19141;48.980;8.410;2022-07-06T18:40:15;3.33;;;1.08;;
32788;SDS011;19141;48.980;8.410;2022-07-06T18:42:40;1.65;;;0.82;;
32788;SDS011;19141;48.980;8.410;2022-07-06T18:45:07;2.78;;;1.10;;
32788;SDS011;19141;48.980;8.410;2022-07-06T18:47:34;1.47;;;0.90;;
32788;SDS011;19141;48.980;8.410;2022-07-06T18:49:59;2.55;;;1.40;;
32788;SDS011;19141;48.980;8.410;2022-07-06T18:52:24;3.40;;;2.20;;
32788;SDS011;19141;48.980;8.410;2022-07-06T18:54:50;2.40;;;1.25;;
32788;SDS011;19141;48.980;8.410;2022-07-06T18:57:15;1.80;;;0.90;;
32788;SDS011;19141;48.980;8.410;2022-07-06T18:59:41;6.30;;;3.72;;
32788;SDS011;19141;48.980;8.410;2022-07-06T19:02:06;2.80;;;1.65;;
32788;SDS011;19141;48.980;8.410;2022-07-06T19:04:32;2.15;;;1.38;;
32788;SDS011;19141;48.980;8.410;2022-07-06T19:06:57;2.60;;;1.42;;
32788;SDS011;19141;48.980;8.410;2022-07-06T19:09:23;2.50;;;1.00;;
32788;SDS011;19141;48.980;8.410;2022-07-06T19:11:48;3.25;;;0.98;;
32788;SDS011;19141;48.980;8.410;2022-07-06T19:14:13;1.90;;;0.90;;
32788;SDS011;19141;48.980;8.410;2022-07-06T19:16:39;2.45;;;1.00;;
32788;SDS011;19141;48.980;8.410;2022-07-06T19:19:04;2.13;;;1.38;;
32788;SDS011;19141;48.980;8.410;2022-07-06T19:21:31;3.90;;;1.73;;
32788;SDS011;19141;48.980;8.410;2022-07-06T19:23:57;5.60;;;1.20;;
32788;SDS011;19141;48.980;8.410;2022-07-06T19:26:23;3.53;;;1.15;;
32788;SDS011;19141;48.980;8.410;2022-07-06T19:28:49;3.25;;;1.30;;
32788;SDS011;19141;48.980;8.410;2022-07-06T19:31:17;1.40;;;0.82;;